No particular awareness of the weather is required.    There are no Weather-warnings


Meteo18 Weather Cam more information Meteo18 Weather Cam


Thunder radar more information blitzortung!


Rain radar more information rain snow radar


Visit our other weather sites:

Template documentation
and downloads

And another site



Weather Underground History page Text

Daily Summary for July 23, 2017 Units:  English    Metric   Both
« Previous Day
Next Day »
Daily Weekly Monthly Yearly Custom
  High: Low: Average:
Temperature: 71.1 °F 55.9 °F 63 °F
Dew Point: 59.5 °F 52.5 °F 55.2 °F
Humidity: 93 % 54 % 77 %
Wind Speed: 17 mph 0 mph 5.2 mph
Wind Gust: 20 mph - -
Wind:- - SW
Pressure: 30.1 in 30 in -
Precipitation: 0.04 in    
Historical Graphs
 
 
Tabular Data for July 23, 2017
Time Temperature Dew Point Pressure Wind Wind Speed Wind Gust Humidity Rainfall Rate (Hourly)
00:02 60.3 °F 54.7 °F 30.1 in SW 4 mph 11 mph 82 % 0 in
00:07 60.3 °F 54.7 °F 30.1 in SW 4 mph 11 mph 82 % 0 in
00:12 60.1 °F 54.5 °F 30.1 in SW 5 mph 11 mph 82 % 0 in
00:17 59.9 °F 54.3 °F 30.1 in SW 5 mph 10 mph 82 % 0 in
00:22 59.7 °F 54.1 °F 30.1 in SW 5 mph 10 mph 82 % 0 in
00:32 59.7 °F 54.5 °F 30.1 in SW 6 mph 11 mph 83 % 0 in
00:37 59.5 °F 54.3 °F 30.1 in SSW 4 mph 11 mph 83 % 0 in
00:42 59.5 °F 54.3 °F 30.1 in SW 4 mph 11 mph 83 % 0 in
00:47 59.4 °F 54.1 °F 30.1 in SW 6 mph 10 mph 83 % 0 in
00:52 59.2 °F 54.3 °F 30.1 in SW 3 mph 10 mph 84 % 0 in
00:57 59.2 °F 54.3 °F 30.1 in SSW 2 mph 10 mph 84 % 0 in
01:02 59 °F 54.1 °F 30.1 in SW 3 mph 10 mph 84 % 0 in
01:12 58.6 °F 54.1 °F 30.1 in SW 1 mph 8 mph 85 % 0 in
01:17 58.5 °F 54 °F 30.1 in SSW 3 mph 7 mph 85 % 0 in
01:22 58.5 °F 54.3 °F 30.1 in SW 4 mph 7 mph 86 % 0 in
01:27 58.3 °F 54.1 °F 30.1 in WSW 2 mph 9 mph 86 % 0 in
01:32 58.3 °F 54.5 °F 30.1 in SW 5 mph 9 mph 87 % 0 in
01:37 58.3 °F 54.5 °F 30.1 in SW 4 mph 10 mph 87 % 0 in
01:42 58.1 °F 54.3 °F 30.1 in WSW 3 mph 10 mph 87 % 0 in
01:47 57.9 °F 54.1 °F 30.1 in SW 4 mph 8 mph 87 % 0 in
01:52 57.9 °F 54.1 °F 30.1 in WSW 4 mph 8 mph 87 % 0 in
01:57 57.9 °F 54.3 °F 30.1 in SW 3 mph 8 mph 88 % 0 in
02:02 57.7 °F 54.1 °F 30.1 in SW 3 mph 8 mph 88 % 0 in
02:07 57.6 °F 54 °F 30.1 in SW 3 mph 7 mph 88 % 0 in
02:12 57.4 °F 53.8 °F 30.1 in SW 4 mph 7 mph 88 % 0 in
02:17 57 °F 53.8 °F 30.1 in SSW 3 mph 7 mph 89 % 0 in
02:22 56.8 °F 53.6 °F 30.1 in SSW 1 mph 7 mph 89 % 0 in
02:27 56.7 °F 53.4 °F 30.1 in SW 3 mph 6 mph 89 % 0 in
02:32 56.3 °F 53.4 °F 30.1 in SSW 4 mph 6 mph 90 % 0 in
02:42 55.9 °F 53.4 °F 30.1 in SSW 3 mph 4 mph 91 % 0 in
02:47 56.1 °F 53.6 °F 30.1 in SW 5 mph 6 mph 91 % 0 in
02:52 56.5 °F 54 °F 30.1 in SSW 4 mph 6 mph 91 % 0 in
02:57 56.7 °F 54.1 °F 30.1 in SW 4 mph 8 mph 91 % 0 in
03:02 56.7 °F 53.8 °F 30.1 in WSW 5 mph 8 mph 90 % 0 in
03:12 56.7 °F 53.8 °F 30.1 in WSW 7 mph 8 mph 90 % 0 in
03:17 56.8 °F 54 °F 30.1 in SW 4 mph 9 mph 90 % 0 in
03:22 56.8 °F 54 °F 30.1 in SW 5 mph 9 mph 90 % 0 in
03:27 56.7 °F 53.4 °F 30.1 in SW 7 mph 9 mph 89 % 0 in
03:32 56.7 °F 53.4 °F 30.1 in SSW 6 mph 9 mph 89 % 0 in
03:42 56.8 °F 53.6 °F 30.1 in SW 3 mph 8 mph 89 % 0 in
03:47 56.7 °F 53.4 °F 30.1 in South 5 mph 9 mph 89 % 0 in
03:52 56.7 °F 53.4 °F 30.1 in SSW 3 mph 9 mph 89 % 0 in
03:57 56.7 °F 53.4 °F 30.1 in SW 3 mph 8 mph 89 % 0 in
04:02 56.7 °F 53.4 °F 30.1 in SW 4 mph 8 mph 89 % 0 in
04:07 56.8 °F 53.6 °F 30.1 in SSW 4 mph 8 mph 89 % 0 in
04:12 57 °F 53.8 °F 30.1 in SW 7 mph 8 mph 89 % 0 in
04:17 57 °F 53.4 °F 30.1 in SSW 3 mph 10 mph 88 % 0 in
04:22 57.4 °F 53.8 °F 30.1 in SW 7 mph 10 mph 88 % 0 in
04:32 57.4 °F 54.1 °F 30.1 in South 6 mph 10 mph 89 % 0 in
04:37 57.6 °F 54.3 °F 30.1 in WSW 4 mph 8 mph 89 % 0 in
04:42 57.6 °F 54.3 °F 30.1 in SSW 5 mph 8 mph 89 % 0 in
04:47 57.7 °F 54.5 °F 30.1 in SW 7 mph 11 mph 89 % 0 in
04:52 57.7 °F 54.1 °F 30.1 in SW 5 mph 11 mph 88 % 0 in
04:57 57.9 °F 54.3 °F 30.1 in SSW 4 mph 11 mph 88 % 0 in
05:02 57.9 °F 54.3 °F 30.1 in SSW 3 mph 11 mph 88 % 0 in
05:12 58.1 °F 54.5 °F 30.1 in SW 4 mph 10 mph 88 % 0 in
05:17 58.3 °F 54.7 °F 30.1 in SSW 5 mph 8 mph 88 % 0 in
05:22 58.3 °F 54.7 °F 30.1 in WSW 4 mph 8 mph 88 % 0 in
05:32 58.3 °F 54.5 °F 30.1 in SSW 3 mph 9 mph 87 % 0 in
05:42 58.3 °F 54.5 °F 30.1 in SW 4 mph 9 mph 87 % 0 in
05:52 58.3 °F 54.5 °F 30.1 in SW 7 mph 9 mph 87 % 0 in
05:57 58.1 °F 54.3 °F 30.1 in SW 5 mph 8 mph 87 % 0 in
06:02 58.1 °F 54.5 °F 30.1 in SW 6 mph 8 mph 88 % 0 in
06:12 58.1 °F 54.5 °F 30.1 in SW 3 mph 8 mph 88 % 0 in
06:17 58.1 °F 54.5 °F 30.1 in SSW 4 mph 8 mph 88 % 0 in
06:22 57.9 °F 54.3 °F 30.1 in SW 5 mph 8 mph 88 % 0 in
06:32 58.3 °F 54.7 °F 30.1 in SW 4 mph 8 mph 88 % 0 in
06:42 58.5 °F 54.7 °F 30.1 in SSW 4 mph 9 mph 87 % 0 in
06:47 58.5 °F 54.3 °F 30.1 in SW 3 mph 9 mph 86 % 0 in
06:52 58.5 °F 54.3 °F 30.1 in SW 2 mph 9 mph 86 % 0 in
07:02 58.6 °F 54.5 °F 30.1 in WSW 5 mph 10 mph 86 % 0 in
07:12 58.6 °F 54.5 °F 30.1 in SW 4 mph 10 mph 86 % 0 in
07:22 58.6 °F 54.5 °F 30.1 in WSW 7 mph 10 mph 86 % 0 in
07:32 58.6 °F 54.5 °F 30.1 in SW 5 mph 8 mph 86 % 0 in
07:42 58.8 °F 54.7 °F 30.1 in WSW 3 mph 8 mph 86 % 0 in
07:47 58.8 °F 54.7 °F 30.1 in SW 4 mph 9 mph 86 % 0 in
07:52 58.8 °F 54.7 °F 30.1 in SW 5 mph 9 mph 86 % 0 in
08:02 59.2 °F 54.7 °F 30.1 in West 4 mph 9 mph 85 % 0 in
08:07 59.2 °F 54.7 °F 30.1 in SSW 3 mph 13 mph 85 % 0 in
08:12 59.4 °F 54.9 °F 30.1 in SW 6 mph 13 mph 85 % 0 in
08:17 59.4 °F 54.5 °F 30.1 in WSW 3 mph 13 mph 84 % 0 in
08:22 59.5 °F 54.7 °F 30.1 in SW 5 mph 13 mph 84 % 0 in
08:32 59.7 °F 54.9 °F 30.1 in SW 5 mph 12 mph 84 % 0 in
08:42 60.1 °F 55.2 °F 30.1 in WSW 5 mph 10 mph 84 % 0 in
08:52 60.1 °F 54.9 °F 30.1 in West 4 mph 10 mph 83 % 0 in
09:02 60.1 °F 54.9 °F 30.1 in WSW 4 mph 11 mph 83 % 0 in
09:07 60.3 °F 55 °F 30.1 in West 4 mph 11 mph 83 % 0 in
09:12 60.6 °F 55.4 °F 30.1 in WSW 5 mph 11 mph 83 % 0 in
09:17 61 °F 55.4 °F 30.1 in SW 4 mph 13 mph 82 % 0 in
09:22 61.3 °F 55.8 °F 30.1 in WSW 11 mph 13 mph 82 % 0 in
09:32 61.3 °F 54.5 °F 30.1 in West 4 mph 13 mph 78 % 0 in
09:42 61.7 °F 54.9 °F 30.1 in WSW 7 mph 15 mph 78 % 0 in
09:52 62.6 °F 55.2 °F 30.1 in WSW 5 mph 14 mph 77 % 0 in
10:02 62.2 °F 54.5 °F 30.1 in West 5 mph 13 mph 76 % 0 in
10:07 62.4 °F 55 °F 30.1 in West 9 mph 13 mph 77 % 0 in
10:12 62.4 °F 54.7 °F 30.1 in SW 6 mph 13 mph 76 % 0 in
10:22 62.6 °F 54.1 °F 30.1 in WSW 5 mph 13 mph 74 % 0 in
10:32 62.8 °F 54.7 °F 30.1 in WSW 7 mph 15 mph 75 % 0 in
10:42 63.7 °F 54.5 °F 30.1 in SSW 5 mph 14 mph 72 % 0 in
10:47 63.7 °F 54.9 °F 30.1 in SW 4 mph 15 mph 73 % 0 in
10:52 63.9 °F 54.3 °F 30.1 in West 7 mph 15 mph 71 % 0 in
11:02 63.9 °F 54.3 °F 30.1 in WSW 12 mph 15 mph 71 % 0 in
11:12 64.2 °F 54.7 °F 30.1 in WSW 9 mph 14 mph 71 % 0 in
11:17 64.2 °F 54.7 °F 30.1 in SW 8 mph 14 mph 71 % 0 in
11:22 63.9 °F 55 °F 30.1 in WSW 8 mph 14 mph 73 % 0 in
11:32 62.6 °F 55.6 °F 30.1 in SW 5 mph 13 mph 78 % 0 in
11:42 61.9 °F 55.6 °F 30.1 in SW 10 mph 15 mph 80 % 0 in
11:47 62.2 °F 55.6 °F 30.1 in WSW 7 mph 15 mph 79 % 0 in
11:52 63.1 °F 55.4 °F 30.1 in WSW 14 mph 15 mph 76 % 0 in
12:02 64 °F 55.2 °F 30.1 in SW 6 mph 19 mph 73 % 0 in
12:12 65.1 °F 55.4 °F 30.1 in SW 5 mph 20 mph 71 % 0 in
12:17 65.7 °F 55.6 °F 30.1 in West 5 mph 17 mph 70 % 0 in
12:22 65.8 °F 55.4 °F 30.1 in West 8 mph 17 mph 69 % 0 in
12:27 66 °F 54.7 °F 30.1 in WSW 11 mph 13 mph 67 % 0 in
12:32 65.5 °F 53.8 °F 30.1 in West 10 mph 13 mph 66 % 0 in
12:42 65.8 °F 54.5 °F 30.1 in SW 4 mph 16 mph 67 % 0 in
12:52 66.4 °F 54.7 °F 30.1 in WNW 8 mph 17 mph 66 % 0 in
13:02 66 °F 54 °F 30.1 in SW 5 mph 16 mph 65 % 0 in
13:12 67.8 °F 55.2 °F 30.1 in SW 4 mph 16 mph 64 % 0 in
13:17 67.8 °F 54.3 °F 30.1 in West 5 mph 14 mph 62 % 0 in
13:22 67.8 °F 54.3 °F 30.1 in West 8 mph 14 mph 62 % 0 in
13:32 68.7 °F 53.4 °F 30.1 in SW 11 mph 15 mph 58 % 0 in
13:37 68.5 °F 53.6 °F 30.1 in WSW 4 mph 13 mph 59 % 0 in
13:42 68.7 °F 53.8 °F 30.1 in WSW 5 mph 13 mph 59 % 0 in
13:52 68.9 °F 54 °F 30.1 in West 4 mph 16 mph 59 % 0 in
13:57 69.3 °F 54.3 °F 30.1 in SSW 7 mph 16 mph 59 % 0 in
14:02 68.7 °F 52.9 °F 30.1 in SW 10 mph 16 mph 57 % 0 in
14:12 69.3 °F 52.9 °F 30.1 in WSW 17 mph 17 mph 56 % 0 in
14:17 69.8 °F 53.4 °F 30.1 in West 9 mph 16 mph 56 % 0 in
14:22 70.2 °F 54.1 °F 30.1 in West 7 mph 16 mph 57 % 0 in
14:32 70 °F 53.6 °F 30.1 in SW 5 mph 17 mph 56 % 0 in
14:37 69.4 °F 53.1 °F 30.1 in SW 9 mph 18 mph 56 % 0 in
14:42 69.3 °F 52.9 °F 30.1 in WSW 3 mph 18 mph 56 % 0 in
14:47 69.4 °F 53.1 °F 30.1 in West 5 mph 12 mph 56 % 0 in
14:57 68.9 °F 52.5 °F 30.1 in West 12 mph 15 mph 56 % 0 in
15:02 68.9 °F 52.5 °F 30.1 in SW 10 mph 15 mph 56 % 0 in
15:07 68.7 °F 52.9 °F 30.1 in West 8 mph 15 mph 57 % 0 in
15:12 68.5 °F 52.7 °F 30.1 in West 5 mph 15 mph 57 % 0 in
15:17 68.4 °F 53.1 °F 30.1 in West 5 mph 15 mph 58 % 0 in
15:22 68.4 °F 53.4 °F 30.1 in WNW 5 mph 15 mph 59 % 0 in
15:27 68.5 °F 53.6 °F 30.1 in West 6 mph 14 mph 59 % 0 in
15:32 69.1 °F 53.6 °F 30.1 in SW 4 mph 14 mph 58 % 0 in
15:42 69.4 °F 53.6 °F 30.1 in WSW 8 mph 14 mph 57 % 0 in
15:47 69.8 °F 54.3 °F 30.1 in SSW 5 mph 13 mph 58 % 0 in
15:52 70.3 °F 53.4 °F 30.1 in WSW 5 mph 13 mph 55 % 0 in
15:57 70.3 °F 53.4 °F 30.1 in West 5 mph 12 mph 55 % 0 in
16:02 70.5 °F 53.6 °F 30.1 in SW 8 mph 12 mph 55 % 0 in
16:12 70.3 °F 53.4 °F 30.1 in SW 6 mph 15 mph 55 % 0 in
16:17 70 °F 53.6 °F 30.1 in SW 5 mph 15 mph 56 % 0 in
16:22 69.6 °F 53.2 °F 30.1 in WSW 8 mph 15 mph 56 % 0 in
16:27 69.6 °F 53.2 °F 30.1 in WSW 6 mph 12 mph 56 % 0 in
16:32 69.6 °F 53.8 °F 30.1 in WSW 4 mph 12 mph 57 % 0 in
16:37 69.6 °F 53.2 °F 30.1 in WSW 10 mph 16 mph 56 % 0 in
16:42 69.6 °F 53.8 °F 30.1 in West 7 mph 16 mph 57 % 0 in
16:47 69.6 °F 53.8 °F 30.1 in West 6 mph 16 mph 57 % 0 in
16:52 69.6 °F 54.1 °F 30.1 in West 6 mph 16 mph 58 % 0 in
16:57 70 °F 54 °F 30.1 in WSW 11 mph 12 mph 57 % 0 in
17:02 70 °F 53.6 °F 30.1 in WSW 9 mph 12 mph 56 % 0 in
17:12 70.5 °F 53.6 °F 30.1 in WSW 6 mph 12 mph 55 % 0 in
17:17 70.9 °F 54 °F 30.1 in WSW 5 mph 12 mph 55 % 0 in
17:22 71.1 °F 54.5 °F 30.1 in West 7 mph 12 mph 56 % 0 in
17:32 71.1 °F 53.6 °F 30.1 in WSW 14 mph 14 mph 54 % 0 in
17:37 70.9 °F 54 °F 30.1 in SW 8 mph 16 mph 55 % 0 in
17:42 71.1 °F 54.1 °F 30 in West 6 mph 16 mph 55 % 0 in
17:47 71.1 °F 54.1 °F 30 in West 4 mph 15 mph 55 % 0 in
17:52 70.7 °F 53.8 °F 30 in SW 8 mph 15 mph 55 % 0 in
17:57 70.7 °F 54.3 °F 30 in WSW 4 mph 18 mph 56 % 0 in
18:02 70.9 °F 54.3 °F 30 in WSW 12 mph 18 mph 56 % 0 in
18:12 70.7 °F 54.3 °F 30 in West 3 mph 16 mph 56 % 0 in
18:17 70.5 °F 54.5 °F 30 in WSW 6 mph 12 mph 57 % 0 in
18:22 70.3 °F 54.3 °F 30 in WSW 12 mph 16 mph 57 % 0 in
18:32 70.2 °F 54.7 °F 30 in West 4 mph 16 mph 58 % 0 in
18:37 69.8 °F 55.2 °F 30 in SSW 3 mph 16 mph 60 % 0 in
18:42 69.4 °F 54.9 °F 30 in WNW 4 mph 16 mph 60 % 0 in
18:47 69.1 °F 55 °F 30 in WSW 8 mph 16 mph 61 % 0 in
18:57 68.5 °F 55.9 °F 30 in WSW 8 mph 13 mph 64 % 0 in
19:02 68 °F 55.8 °F 30 in West 9 mph 13 mph 65 % 0 in
19:12 67.5 °F 56.5 °F 30.1 in West 8 mph 16 mph 68 % 0 in
19:22 66.4 °F 57.4 °F 30 in SW 8 mph 18 mph 73 % 0 in
19:32 66 °F 57.6 °F 30 in WSW 7 mph 17 mph 74 % 0 in
19:37 66 °F 57.6 °F 30 in WSW 7 mph 15 mph 74 % 0 in
19:42 65.8 °F 57.7 °F 30 in WNW 3 mph 15 mph 75 % 0 in
19:47 65.7 °F 57.9 °F 30 in WSW 4 mph 13 mph 76 % 0 in
19:52 65.7 °F 57.9 °F 30 in West 3 mph 13 mph 76 % 0 in
19:57 65.5 °F 57.7 °F 30 in WSW 6 mph 7 mph 76 % 0 in
20:02 65.1 °F 58.1 °F 30 in West 6 mph 7 mph 78 % 0 in
20:12 64.8 °F 58.5 °F 30 in WSW 8 mph 11 mph 80 % 0 in
20:17 64.2 °F 57.9 °F 30 in SW 5 mph 10 mph 80 % 0 in
20:22 64 °F 58.1 °F 30 in SW 5 mph 10 mph 81 % 0 in
20:32 63.9 °F 58.3 °F 30 in WSW 3 mph 13 mph 82 % 0 in
20:37 63.9 °F 58.3 °F 30 in WSW 1 mph 10 mph 82 % 0 in
20:47 63.7 °F 58.5 °F 30 in West 3 mph 7 mph 83 % 0 in
20:57 63.3 °F 58.5 °F 30 in Calm   4 mph 84 % 0 in
21:02 63.3 °F 58.5 °F 30 in WSW 1 mph 4 mph 84 % 0 in
21:07 63.3 °F 58.8 °F 30 in SW 2 mph 4 mph 85 % 0 in
21:12 63.3 °F 58.8 °F 30 in West 1 mph 4 mph 85 % 0 in
21:17 63.3 °F 58.8 °F 30 in SW 1 mph 4 mph 85 % 0 in
21:22 63.3 °F 58.8 °F 30 in Calm   4 mph 85 % 0 in
21:32 63.1 °F 58.6 °F 30 in Calm   1 mph 85 % 0 in
21:37 63.1 °F 58.8 °F 30 in SSW 2 mph 3 mph 86 % 0 in
21:42 63 °F 58.6 °F 30 in SSW 1 mph 3 mph 86 % 0 in
21:47 63 °F 59 °F 30 in SW 1 mph 4 mph 87 % 0 in
21:52 62.8 °F 59.2 °F 30 in SSW 1 mph 4 mph 88 % 0 in
21:57 62.6 °F 59 °F 30 in SE 3 mph 4 mph 88 % 0 in
22:02 62.4 °F 58.8 °F 30 in SW 5 mph 5 mph 88 % 0 in
22:12 62.4 °F 58.8 °F 30 in SSW 3 mph 8 mph 88 % 0 in
22:17 62.4 °F 59.2 °F 30 in SW 2 mph 8 mph 89 % 0 in
22:22 62.2 °F 59 °F 30 in SSW 2 mph 8 mph 89 % 0 in
22:27 62.2 °F 59 °F 30 in SW 4 mph 6 mph 89 % 0 in
22:32 62.2 °F 59.2 °F 30 in SSW 3 mph 6 mph 90 % 0 in
22:37 62.1 °F 59.2 °F 30 in SSW 2 mph 6 mph 90 % 0 in
22:42 61.9 °F 59.2 °F 30 in SSW 3 mph 6 mph 91 % 0 in
22:52 61.7 °F 59.4 °F 30 in SSW 3 mph 5 mph 92 % 0 in
22:57 61.5 °F 59.2 °F 30 in SW 4 mph 4 mph 92 % 0.01 in
23:02 61.5 °F 59.2 °F 30 in SSW 2 mph 4 mph 92 % 0.01 in
23:07 61.5 °F 59.5 °F 30 in SSW 5 mph 5 mph 93 % 0.01 in
23:12 61.5 °F 59.5 °F 30 in SSW 4 mph 5 mph 93 % 0.01 in
23:17 61.5 °F 59.5 °F 30 in SW 3 mph 9 mph 93 % 0.02 in
23:22 61.3 °F 59 °F 30 in SW 5 mph 9 mph 92 % 0.02 in
23:32 61.3 °F 59.4 °F 30 in SW 2 mph 9 mph 93 % 0.03 in
23:37 61.3 °F 59.4 °F 30 in SW 4 mph 8 mph 93 % 0.04 in
23:47 61.2 °F 59.2 °F 30 in WSW 2 mph 9 mph 93 % 0.04 in
23:52 61.2 °F 59.2 °F 30 in WSW 4 mph 9 mph 93 % 0.04 in
Meteo18
Compliments of Weather Underground - 4 mb

Script developed by  Jim McMurry - jmcmurry@mwt.net Adapted for the template by  Wim van der Kuil - Leuven-Template.eu

You find our weather info also at:

European Weather Network

Weather Underground

Equipment we use:

Weather-station
Davis Vue

Weather-program
Meteohub

Weather-server
Raspberry PI 2 B+

Provider
1 and 1

Davis Vue

Meteohub

Raspberry PI 2 B+

1 and 1